Torm Horizon — OYNM2 — position and weather

sailwx.info

Track history (hours):
 
Tides and Currents Weather Stations Pressure Air Temp Water Temp Dewpoint Dewpoint Depression Visibility Wind Speed Wind Dir Waves Ship Positions

Torm Horizon

Last reported at 2016-Feb-09 20:33 UTC. Time now 2016-Feb-12 09:36 UTC.
Position N 29°44' W 095°13'.

Length 183 m; draft 7.2 m.

Type: Tanker. MMSI: 220566000.

Date/timePositionNaut miles runAvg speedWind from/ knotsBaromVisibWave heightAir tempDewpointWater temp
2016-Feb-09 20:33N 29°44' W 095°13'3 3.1
2016-Feb-09 19:33N 29°45' W 095°10'6 6.3
2016-Feb-09 18:34N 29°44' W 095°03'10 9.8
2016-Feb-09 17:34N 29°36' W 094°57'1211.6
2016-Feb-09 16:34N 29°26' W 094°50'17 0.5
2016-Feb-08 09:06N 29°19' W 094°32'0 0.0
2016-Feb-08 07:18N 29°19' W 094°32'  
2016-Feb-03 02:14N 29°19' W 094°32'0 0.0
2016-Feb-03 00:32N 29°19' W 094°32'0 0.0
2016-Feb-02 23:23N 29°19' W 094°32'0 0.0
2016-Feb-02 22:32N 29°19' W 094°32'0 0.0
2016-Feb-02 00:07N 29°19' W 094°32'0 0.0
2016-Feb-01 23:19N 29°19' W 094°32'  
Track history (hours):
 
Tides and Currents Weather Stations Pressure Air Temp Water Temp Dewpoint Dewpoint Depression Visibility Wind Speed Wind Dir Waves Ship Positions

Torm Horizon

Last reported at 2016-Feb-09 20:33 UTC. Time now 2016-Feb-12 09:36 UTC.
Position N 29°44' W 095°13'.

Length 183 m; draft 7.2 m.

Type: Tanker. MMSI: 220566000.

Date/timePositionNaut miles runAvg speedWind from/ knotsBaromVisibWave heightAir tempDewpointWater temp
2016-Feb-09 20:33N 29°44' W 095°13'3 3.1
2016-Feb-09 19:33N 29°45' W 095°10'6 6.3
2016-Feb-09 18:34N 29°44' W 095°03'10 9.8
2016-Feb-09 17:34N 29°36' W 094°57'1211.6
2016-Feb-09 16:34N 29°26' W 094°50'17 0.5
2016-Feb-08 09:06N 29°19' W 094°32'0 0.0
2016-Feb-08 07:18N 29°19' W 094°32'  
2016-Feb-03 02:14N 29°19' W 094°32'0 0.0
2016-Feb-03 00:32N 29°19' W 094°32'0 0.0
2016-Feb-02 23:23N 29°19' W 094°32'0 0.0
2016-Feb-02 22:32N 29°19' W 094°32'0 0.0
2016-Feb-02 00:07N 29°19' W 094°32'0 0.0
2016-Feb-01 23:19N 29°19' W 094°32'  

Dump ship's entire track history